Time;durP1;ratioP1;P1;durP2;ratioP2;P2;SDS_P1;SDS_P2;PMS_P1;PMS_P2;Temp;Humidity;BMP_temperature;BMP_pressure;BME280_temperature;BME280_humidity;BME280_pressure;Samples;Min_cycle;Max_cycle;Signal;HPM_P1;HPM_P2
2022/10/31 00:00:01;;;;;;;15.23;10.05;;;;;;;;;;4884330;28;92773;-87
2022/10/31 00:02:36;;;;;;;19.90;10.60;;;;;;;;;;4883224;28;92348;-88
2022/10/31 00:05:03;;;;;;;13.95;10.40;;;;;;;;;;4883619;28;93479;-88
2022/10/31 00:07:31;;;;;;;19.67;10.90;;;;;;;;;;4882154;28;92436;-88
2022/10/31 00:09:57;;;;;;;22.15;10.35;;;;;;;;;;4881921;28;92401;-89
2022/10/31 00:12:23;;;;;;;16.90;10.73;;;;;;;;;;4881495;28;94092;-88
2022/10/31 00:14:50;;;;;;;21.20;10.70;;;;;;;;;;4882279;28;91723;-89
2022/10/31 00:17:16;;;;;;;15.18;10.63;;;;;;;;;;4884505;28;92535;-88
2022/10/31 00:19:43;;;;;;;19.10;10.80;;;;;;;;;;4880590;28;92484;-88
2022/10/31 00:22:10;;;;;;;19.50;11.45;;;;;;;;;;4879930;28;94759;-89
2022/10/31 00:24:37;;;;;;;19.98;10.95;;;;;;;;;;4882002;28;94213;-88
2022/10/31 00:27:03;;;;;;;22.40;12.13;;;;;;;;;;4880513;28;92533;-88
2022/10/31 00:29:29;;;;;;;18.75;11.90;;;;;;;;;;4880239;28;93364;-87
2022/10/31 00:31:55;;;;;;;24.38;12.13;;;;;;;;;;4881594;28;93336;-89
2022/10/31 00:34:22;;;;;;;14.23;11.32;;;;;;;;;;4881293;28;92772;-88
2022/10/31 00:36:48;;;;;;;25.10;11.88;;;;;;;;;;4880977;28;92947;-87
2022/10/31 00:39:14;;;;;;;20.33;12.75;;;;;;;;;;4885987;28;91579;-90
2022/10/31 00:41:41;;;;;;;23.60;13.10;;;;;;;;;;4882566;28;92306;-89
2022/10/31 00:44:11;;;;;;;20.90;12.70;;;;;;;;;;4881857;28;92465;-88
2022/10/31 00:46:37;;;;;;;22.27;12.82;;;;;;;;;;4879749;28;94878;-88
2022/10/31 00:49:03;;;;;;;23.67;13.95;;;;;;;;;;4879273;28;96457;-89
2022/10/31 00:51:30;;;;;;;30.58;14.13;;;;;;;;;;4880708;28;96077;-89
2022/10/31 00:53:57;;;;;;;18.40;13.02;;;;;;;;;;4880327;28;92474;-89
2022/10/31 00:56:23;;;;;;;21.50;13.00;;;;;;;;;;4879253;28;94081;-87
2022/10/31 00:58:50;;;;;;;29.95;14.98;;;;;;;;;;4879502;28;94204;-87
2022/10/31 01:01:18;;;;;;;28.00;14.80;;;;;;;;;;4882486;28;92511;-89
2022/10/31 01:03:45;;;;;;;23.33;14.15;;;;;;;;;;4879719;28;93408;-88
2022/10/31 01:06:12;;;;;;;22.90;13.73;;;;;;;;;;4879893;28;92428;-88
2022/10/31 01:08:39;;;;;;;24.13;14.02;;;;;;;;;;4880528;28;92905;-89
2022/10/31 01:11:05;;;;;;;19.38;14.57;;;;;;;;;;4878947;28;96183;-89
2022/10/31 01:13:32;;;;;;;23.90;14.07;;;;;;;;;;4880527;28;92443;-89
2022/10/31 01:16:00;;;;;;;28.98;15.35;;;;;;;;;;4878392;28;92892;-89
2022/10/31 01:18:26;;;;;;;22.98;14.68;;;;;;;;;;4878462;28;92528;-89
2022/10/31 01:21:09;;;;;;;25.13;14.38;;;;;;;;;;4883806;28;92431;-88
2022/10/31 01:23:36;;;;;;;19.13;14.50;;;;;;;;;;4879826;28;93091;-88
2022/10/31 01:26:07;;;;;;;27.00;14.40;;;;;;;;;;4880605;28;92485;-88
2022/10/31 01:28:35;;;;;;;24.45;14.95;;;;;;;;;;4881292;28;93224;-89
2022/10/31 01:31:03;;;;;;;23.05;14.70;;;;;;;;;;4879744;28;93278;-88
2022/10/31 01:33:29;;;;;;;22.50;15.60;;;;;;;;;;4879079;28;92686;-88
2022/10/31 01:35:57;;;;;;;26.98;15.05;;;;;;;;;;4879020;28;94680;-88
2022/10/31 01:38:24;;;;;;;23.15;15.13;;;;;;;;;;4878680;28;94152;-88
2022/10/31 01:40:51;;;;;;;21.92;14.55;;;;;;;;;;4895763;28;92405;-88
2022/10/31 01:43:17;;;;;;;22.35;14.48;;;;;;;;;;4901205;28;93011;-87
2022/10/31 01:45:46;;;;;;;21.77;14.73;;;;;;;;;;4896748;28;92249;-87
2022/10/31 01:48:15;;;;;;;19.67;14.63;;;;;;;;;;4880190;28;94727;-87
2022/10/31 01:50:43;;;;;;;25.88;16.73;;;;;;;;;;4879554;28;93215;-87
2022/10/31 01:53:11;;;;;;;23.73;14.30;;;;;;;;;;4881000;28;91685;-87
2022/10/31 01:55:43;;;;;;;31.05;15.07;;;;;;;;;;4879006;28;92709;-89
2022/10/31 01:58:15;;;;;;;23.83;13.98;;;;;;;;;;4878074;28;93438;-88
2022/10/31 02:00:46;;;;;;;21.02;14.77;;;;;;;;;;4878106;28;94963;-87
2022/10/31 02:03:12;;;;;;;26.38;15.40;;;;;;;;;;4877980;28;96302;-87
2022/10/31 02:05:39;;;;;;;28.42;14.90;;;;;;;;;;4880716;28;94349;-88
2022/10/31 02:08:12;;;;;;;20.10;13.77;;;;;;;;;;4879486;28;93133;-87
2022/10/31 02:10:39;;;;;;;19.15;14.52;;;;;;;;;;4880250;28;92407;-89
2022/10/31 02:13:07;;;;;;;21.25;14.27;;;;;;;;;;4878296;28;92469;-88
2022/10/31 02:15:43;;;;;;;17.38;14.02;;;;;;;;;;4881142;28;96072;-87
2022/10/31 02:18:10;;;;;;;20.05;15.35;;;;;;;;;;4882438;28;93306;-88
2022/10/31 02:20:45;;;;;;;22.50;15.60;;;;;;;;;;4881390;28;92867;-87
2022/10/31 02:23:27;;;;;;;18.27;14.65;;;;;;;;;;4883589;28;93051;-88
2022/10/31 02:25:56;;;;;;;20.47;15.87;;;;;;;;;;4879345;28;97614;-87
2022/10/31 02:28:33;;;;;;;23.65;15.68;;;;;;;;;;4884719;28;93107;-86
2022/10/31 02:31:11;;;;;;;23.73;15.27;;;;;;;;;;4882899;28;93150;-87
2022/10/31 02:33:44;;;;;;;19.50;13.48;;;;;;;;;;4882422;28;92451;-88
2022/10/31 02:36:15;;;;;;;19.23;15.45;;;;;;;;;;4881789;28;95227;-88
2022/10/31 02:38:41;;;;;;;21.95;14.73;;;;;;;;;;4881711;28;95861;-87
2022/10/31 02:41:31;;;;;;;22.15;14.38;;;;;;;;;;4881363;28;92575;-88
2022/10/31 02:44:17;;;;;;;30.08;16.65;;;;;;;;;;4881877;28;95558;-88
2022/10/31 02:46:48;;;;;;;21.52;14.80;;;;;;;;;;4880892;28;95843;-87
2022/10/31 02:49:22;;;;;;;23.17;16.70;;;;;;;;;;4882513;28;92401;-87
2022/10/31 02:51:49;;;;;;;21.45;15.70;;;;;;;;;;4882833;28;95777;-87
2022/10/31 02:54:23;;;;;;;24.58;15.30;;;;;;;;;;4881238;28;92796;-88
2022/10/31 02:56:58;;;;;;;28.92;15.45;;;;;;;;;;4881154;28;95203;-88
2022/10/31 02:59:25;;;;;;;19.85;15.70;;;;;;;;;;4882409;28;94373;-87
2022/10/31 03:02:01;;;;;;;20.52;16.45;;;;;;;;;;4881111;28;92481;-86
2022/10/31 03:04:34;;;;;;;19.10;14.77;;;;;;;;;;4880940;28;95202;-87
2022/10/31 03:07:08;;;;;;;21.58;15.95;;;;;;;;;;4881913;28;93132;-87
2022/10/31 03:09:41;;;;;;;18.67;14.23;;;;;;;;;;4880213;28;92825;-88
2022/10/31 03:12:17;;;;;;;17.95;14.27;;;;;;;;;;4880153;28;95017;-87
2022/10/31 03:14:44;;;;;;;23.70;15.23;;;;;;;;;;4883024;28;96231;-88
2022/10/31 03:17:15;;;;;;;16.20;14.25;;;;;;;;;;4880191;28;94674;-87
2022/10/31 03:19:45;;;;;;;26.67;16.10;;;;;;;;;;4880479;28;92451;-86
2022/10/31 03:22:20;;;;;;;18.73;14.52;;;;;;;;;;4881711;28;92618;-86
2022/10/31 03:24:48;;;;;;;19.35;14.98;;;;;;;;;;4882096;28;92838;-87
2022/10/31 03:27:17;;;;;;;19.33;15.13;;;;;;;;;;4880258;28;93206;-86
2022/10/31 03:29:44;;;;;;;18.58;14.63;;;;;;;;;;4881161;28;92406;-87
2022/10/31 03:32:13;;;;;;;18.20;14.05;;;;;;;;;;4864344;28;94806;-87
2022/10/31 03:34:41;;;;;;;22.98;13.68;;;;;;;;;;4883649;28;93900;-85
2022/10/31 03:37:10;;;;;;;18.20;14.30;;;;;;;;;;4863341;28;94464;-85
2022/10/31 03:39:38;;;;;;;16.42;14.70;;;;;;;;;;4879880;28;96363;-84
2022/10/31 03:42:05;;;;;;;18.17;13.95;;;;;;;;;;4879198;28;94928;-86
2022/10/31 03:44:33;;;;;;;22.38;14.88;;;;;;;;;;4879931;28;96924;-87
2022/10/31 03:47:02;;;;;;;18.35;15.52;;;;;;;;;;4880556;28;95520;-86
2022/10/31 03:49:29;;;;;;;20.42;14.32;;;;;;;;;;4865409;28;92983;-87
2022/10/31 03:51:59;;;;;;;18.17;13.57;;;;;;;;;;4880722;28;95090;-87
2022/10/31 03:54:28;;;;;;;17.48;13.75;;;;;;;;;;4881669;28;94256;-86
2022/10/31 03:56:57;;;;;;;21.65;14.93;;;;;;;;;;4891128;28;92821;-86
2022/10/31 03:59:31;;;;;;;17.20;14.32;;;;;;;;;;4892941;28;91666;-87
2022/10/31 04:02:00;;;;;;;18.60;15.43;;;;;;;;;;4888736;28;93214;-87
2022/10/31 04:04:28;;;;;;;22.30;15.25;;;;;;;;;;4880765;28;95731;-88
2022/10/31 04:06:56;;;;;;;19.25;14.82;;;;;;;;;;4879081;28;98196;-87
2022/10/31 04:09:24;;;;;;;20.60;14.73;;;;;;;;;;4881234;28;92691;-85
2022/10/31 04:11:52;;;;;;;17.67;14.13;;;;;;;;;;4880729;28;92882;-87
2022/10/31 04:14:52;;;;;;;17.95;12.77;;;;;;;;;;4862429;28;92969;-86
2022/10/31 04:17:21;;;;;;;14.00;12.32;;;;;;;;;;4879622;28;92663;-84
2022/10/31 04:19:47;;;;;;;22.17;12.15;;;;;;;;;;4882608;28;95307;-88
2022/10/31 04:22:13;;;;;;;15.45;13.10;;;;;;;;;;4879955;28;92848;-87
2022/10/31 04:24:40;;;;;;;15.07;12.95;;;;;;;;;;4881188;28;93901;-88
2022/10/31 04:27:09;;;;;;;17.25;13.68;;;;;;;;;;4879433;28;94608;-86
2022/10/31 04:29:36;;;;;;;16.33;13.30;;;;;;;;;;4880872;28;92425;-86
2022/10/31 04:32:03;;;;;;;16.90;13.48;;;;;;;;;;4877874;28;94741;-87
2022/10/31 04:34:29;;;;;;;14.60;12.65;;;;;;;;;;4877956;28;95546;-86
2022/10/31 04:36:56;;;;;;;14.10;12.60;;;;;;;;;;4878157;28;92581;-86
2022/10/31 04:39:22;;;;;;;14.95;12.95;;;;;;;;;;4880009;28;94045;-86
2022/10/31 04:42:11;;;;;;;14.90;12.02;;;;;;;;;;4881823;28;92709;-87
2022/10/31 04:44:37;;;;;;;14.05;12.45;;;;;;;;;;4879434;28;95454;-85
2022/10/31 04:47:04;;;;;;;16.08;12.02;;;;;;;;;;4879868;28;93370;-87
2022/10/31 04:49:30;;;;;;;19.40;12.88;;;;;;;;;;4879497;28;92503;-86
2022/10/31 04:51:56;;;;;;;18.92;13.10;;;;;;;;;;4878694;28;95066;-87
2022/10/31 04:54:23;;;;;;;25.58;12.55;;;;;;;;;;4879928;28;93013;-85
2022/10/31 04:57:08;;;;;;;14.40;12.00;;;;;;;;;;4878392;28;94802;-86
2022/10/31 04:59:35;;;;;;;14.80;13.02;;;;;;;;;;4879340;28;97718;-87
2022/10/31 05:02:02;;;;;;;17.08;13.05;;;;;;;;;;4878011;28;93458;-86
2022/10/31 05:04:42;;;;;;;19.00;13.77;;;;;;;;;;4882024;28;92464;-87
2022/10/31 05:07:09;;;;;;;16.20;14.23;;;;;;;;;;4878810;28;95871;-87
2022/10/31 05:09:35;;;;;;;17.65;14.38;;;;;;;;;;4883597;28;92828;-86
2022/10/31 05:12:01;;;;;;;19.70;14.88;;;;;;;;;;4884114;28;93017;-86
2022/10/31 05:14:46;;;;;;;19.55;14.70;;;;;;;;;;4882607;28;91575;-86
2022/10/31 05:17:40;;;;;;;18.17;15.73;;;;;;;;;;4881812;28;92318;-86
2022/10/31 05:20:26;;;;;;;23.30;14.60;;;;;;;;;;4880782;28;92485;-87
2022/10/31 05:23:18;;;;;;;21.50;14.45;;;;;;;;;;4876079;28;96349;-86
2022/10/31 05:25:45;;;;;;;21.05;16.08;;;;;;;;;;4879627;28;92771;-86
2022/10/31 05:28:12;;;;;;;20.52;15.70;;;;;;;;;;4881902;28;96575;-86
2022/10/31 05:30:39;;;;;;;24.08;16.52;;;;;;;;;;4879990;28;92461;-86
2022/10/31 05:33:09;;;;;;;20.45;16.33;;;;;;;;;;4878080;28;93920;-86
2022/10/31 05:35:54;;;;;;;18.48;14.98;;;;;;;;;;4877017;28;92502;-86
2022/10/31 05:38:32;;;;;;;25.30;16.95;;;;;;;;;;4878665;28;92369;-85
2022/10/31 05:41:09;;;;;;;22.52;17.02;;;;;;;;;;4878453;28;95613;-84
2022/10/31 05:43:35;;;;;;;25.50;17.02;;;;;;;;;;4876547;28;95471;-85
2022/10/31 05:46:04;;;;;;;26.05;18.83;;;;;;;;;;4877399;28;92654;-85
2022/10/31 05:48:49;;;;;;;61.10;21.50;;;;;;;;;;4879000;28;94767;-85
2022/10/31 05:51:53;;;;;;;171.90;25.88;;;;;;;;;;4837636;29;92576;-85
2022/10/31 05:54:26;;;;;;;141.93;23.85;;;;;;;;;;4839653;29;92835;-85
2022/10/31 05:56:53;;;;;;;123.43;22.85;;;;;;;;;;4842405;28;95398;-85
2022/10/31 05:59:19;;;;;;;243.77;25.55;;;;;;;;;;4879291;28;93459;-85
2022/10/31 06:01:46;;;;;;;135.27;22.73;;;;;;;;;;4877207;28;95441;-84
2022/10/31 06:04:27;;;;;;;185.90;24.77;;;;;;;;;;4877530;28;94509;-85
2022/10/31 06:06:53;;;;;;;203.50;23.48;;;;;;;;;;4878377;28;92362;-84
2022/10/31 06:09:21;;;;;;;307.50;31.48;;;;;;;;;;4878380;28;94653;-85
2022/10/31 06:11:48;;;;;;;217.48;29.98;;;;;;;;;;4880052;28;95222;-85
2022/10/31 06:14:23;;;;;;;292.60;40.13;;;;;;;;;;4878225;28;94723;-85
2022/10/31 06:16:53;;;;;;;346.17;35.90;;;;;;;;;;4879459;28;95757;-84
2022/10/31 06:19:38;;;;;;;199.45;31.55;;;;;;;;;;4877078;28;92541;-84
2022/10/31 06:22:05;;;;;;;360.33;30.80;;;;;;;;;;4877450;28;95716;-83
2022/10/31 06:24:33;;;;;;;398.40;31.40;;;;;;;;;;4879484;28;93171;-83
2022/10/31 06:27:17;;;;;;;367.20;28.17;;;;;;;;;;4877621;28;92553;-83
2022/10/31 06:29:45;;;;;;;586.97;50.78;;;;;;;;;;4878312;28;94774;-85
2022/10/31 06:32:20;;;;;;;337.70;28.23;;;;;;;;;;4877598;28;93773;-83
2022/10/31 06:34:48;;;;;;;290.00;30.33;;;;;;;;;;4880540;28;92537;-84
2022/10/31 06:37:14;;;;;;;421.40;33.58;;;;;;;;;;4878742;28;94644;-83
2022/10/31 06:39:44;;;;;;;404.27;32.78;;;;;;;;;;4874857;28;95188;-85
2022/10/31 06:42:15;;;;;;;502.98;36.17;;;;;;;;;;4878643;28;95598;-83
2022/10/31 06:44:42;;;;;;;455.98;31.08;;;;;;;;;;4877994;28;93119;-83
2022/10/31 06:47:49;;;;;;;577.97;41.10;;;;;;;;;;4878167;28;92279;-83
2022/10/31 06:50:42;;;;;;;377.75;29.15;;;;;;;;;;4878101;28;95640;-83
2022/10/31 06:53:09;;;;;;;350.75;31.13;;;;;;;;;;4876587;28;95877;-83
2022/10/31 06:55:40;;;;;;;549.40;41.63;;;;;;;;;;4878552;28;92489;-83
2022/10/31 06:58:08;;;;;;;461.83;38.85;;;;;;;;;;4882087;28;95901;-83
2022/10/31 07:00:37;;;;;;;419.10;35.75;;;;;;;;;;4876582;28;92527;-83
2022/10/31 07:03:07;;;;;;;388.00;30.73;;;;;;;;;;4879732;28;94265;-82
2022/10/31 07:05:34;;;;;;;444.85;31.30;;;;;;;;;;4879427;28;98101;-83
2022/10/31 07:08:02;;;;;;;400.00;33.13;;;;;;;;;;4880111;28;92617;-83
2022/10/31 07:10:30;;;;;;;361.33;29.38;;;;;;;;;;4880762;28;95325;-83
2022/10/31 07:13:03;;;;;;;522.78;32.15;;;;;;;;;;4880227;28;96315;-82
2022/10/31 07:15:34;;;;;;;435.40;32.25;;;;;;;;;;4880364;28;92848;-85
2022/10/31 07:18:05;;;;;;;320.95;31.17;;;;;;;;;;4880699;28;94239;-84
2022/10/31 07:20:33;;;;;;;199.50;22.65;;;;;;;;;;4883393;28;95500;-83
2022/10/31 07:23:00;;;;;;;329.23;34.83;;;;;;;;;;4882649;28;93078;-82
2022/10/31 07:25:29;;;;;;;289.38;29.77;;;;;;;;;;4880451;28;94624;-83
2022/10/31 07:28:05;;;;;;;167.20;29.88;;;;;;;;;;4879587;28;92560;-83
2022/10/31 07:30:32;;;;;;;159.35;30.08;;;;;;;;;;4879457;28;94892;-83
2022/10/31 07:32:59;;;;;;;311.98;29.67;;;;;;;;;;4882127;28;95275;-82
2022/10/31 07:35:45;;;;;;;174.82;24.80;;;;;;;;;;4883556;28;92417;-82
2022/10/31 07:38:14;;;;;;;114.70;22.13;;;;;;;;;;4880893;28;92593;-82
2022/10/31 07:40:41;;;;;;;265.02;28.88;;;;;;;;;;4865619;28;94630;-82
2022/10/31 07:43:09;;;;;;;222.70;25.98;;;;;;;;;;4883568;28;92352;-83
2022/10/31 07:45:57;;;;;;;100.50;21.65;;;;;;;;;;4879310;28;95027;-82
2022/10/31 07:48:42;;;;;;;159.52;27.83;;;;;;;;;;4881826;28;91571;-82
2022/10/31 07:51:27;;;;;;;117.68;24.10;;;;;;;;;;4878818;28;93158;-84
2022/10/31 07:54:13;;;;;;;68.95;21.40;;;;;;;;;;4850732;28;92883;-81
2022/10/31 07:56:40;;;;;;;52.50;21.05;;;;;;;;;;4879039;28;94803;-81
2022/10/31 07:59:07;;;;;;;66.60;21.65;;;;;;;;;;4880347;28;96261;-82
2022/10/31 08:01:33;;;;;;;70.32;20.48;;;;;;;;;;4879884;28;94392;-82
2022/10/31 08:04:22;;;;;;;68.22;20.55;;;;;;;;;;4882263;28;93969;-81
2022/10/31 08:07:07;;;;;;;76.97;19.27;;;;;;;;;;4880074;28;92620;-82
2022/10/31 08:09:36;;;;;;;43.63;23.08;;;;;;;;;;4879802;28;92544;-81
2022/10/31 08:12:12;;;;;;;69.13;19.88;;;;;;;;;;4879960;28;95358;-81
2022/10/31 08:14:39;;;;;;;49.55;20.10;;;;;;;;;;4884094;28;94543;-82
2022/10/31 08:17:06;;;;;;;25.08;18.95;;;;;;;;;;4898558;28;92550;-79
2022/10/31 08:19:42;;;;;;;20.17;18.08;;;;;;;;;;4881793;28;94973;-79
2022/10/31 08:22:12;;;;;;;19.15;17.20;;;;;;;;;;4880817;28;95622;-81
2022/10/31 08:24:38;;;;;;;19.40;17.30;;;;;;;;;;4882096;28;92480;-81
2022/10/31 08:27:04;;;;;;;26.48;18.83;;;;;;;;;;4902312;28;92948;-79
2022/10/31 08:29:31;;;;;;;19.98;17.85;;;;;;;;;;4898536;28;92590;-77
2022/10/31 08:31:58;;;;;;;19.17;17.17;;;;;;;;;;4897147;28;92431;-80
2022/10/31 08:34:43;;;;;;;19.40;17.38;;;;;;;;;;4897776;28;92614;-81
2022/10/31 08:37:38;;;;;;;19.42;17.38;;;;;;;;;;4863066;28;92404;-81
2022/10/31 08:40:06;;;;;;;17.70;15.82;;;;;;;;;;4882103;28;94904;-81
2022/10/31 08:42:33;;;;;;;26.40;19.67;;;;;;;;;;4882054;28;94102;-81
2022/10/31 08:45:00;;;;;;;23.85;20.48;;;;;;;;;;4881799;28;92902;-81
2022/10/31 08:47:31;;;;;;;26.58;21.73;;;;;;;;;;4880170;28;95035;-81
2022/10/31 08:49:58;;;;;;;28.63;20.58;;;;;;;;;;4901118;28;93260;-81
2022/10/31 08:52:25;;;;;;;29.27;20.52;;;;;;;;;;4898246;28;93634;-82
2022/10/31 08:55:12;;;;;;;30.33;21.48;;;;;;;;;;4882167;28;95502;-80
2022/10/31 08:57:57;;;;;;;45.60;25.55;;;;;;;;;;4897686;28;92357;-80
2022/10/31 09:00:29;;;;;;;33.53;25.70;;;;;;;;;;4882511;28;94624;-80
2022/10/31 09:03:16;;;;;;;38.45;26.17;;;;;;;;;;4897872;28;94682;-80
2022/10/31 09:05:42;;;;;;;36.95;27.85;;;;;;;;;;4882332;28;91853;-80
2022/10/31 09:08:11;;;;;;;36.63;28.20;;;;;;;;;;4897505;28;95059;-80
2022/10/31 09:10:44;;;;;;;36.40;27.50;;;;;;;;;;4882176;28;94549;-81
2022/10/31 09:13:14;;;;;;;42.15;27.77;;;;;;;;;;4883054;28;95233;-80
2022/10/31 09:16:00;;;;;;;41.30;28.08;;;;;;;;;;4870116;28;93307;-80
2022/10/31 09:18:27;;;;;;;35.70;26.98;;;;;;;;;;4898151;28;92447;-81
2022/10/31 09:20:58;;;;;;;41.17;29.25;;;;;;;;;;4896724;28;95785;-80
2022/10/31 09:23:26;;;;;;;37.55;29.77;;;;;;;;;;4884848;28;95410;-80
2022/10/31 09:25:52;;;;;;;40.92;27.52;;;;;;;;;;4877996;28;92676;-80
2022/10/31 09:28:41;;;;;;;35.78;26.75;;;;;;;;;;4877483;28;93299;-80
2022/10/31 09:31:11;;;;;;;40.03;29.15;;;;;;;;;;4880697;28;92485;-80
2022/10/31 09:33:52;;;;;;;35.05;27.33;;;;;;;;;;4878327;28;92543;-80
2022/10/31 09:36:37;;;;;;;37.83;28.58;;;;;;;;;;4888901;28;92633;-80
2022/10/31 09:39:11;;;;;;;36.65;28.48;;;;;;;;;;4861141;28;94869;-80
2022/10/31 09:42:01;;;;;;;42.53;26.23;;;;;;;;;;4879775;28;95800;-81
2022/10/31 09:44:49;;;;;;;38.60;27.38;;;;;;;;;;4878506;28;95754;-81
2022/10/31 09:47:36;;;;;;;36.40;24.80;;;;;;;;;;4862591;28;92423;-82
2022/10/31 09:50:28;;;;;;;40.53;26.85;;;;;;;;;;4878230;28;92660;-81
2022/10/31 09:53:00;;;;;;;51.58;27.42;;;;;;;;;;4874819;28;94182;-80
2022/10/31 09:55:38;;;;;;;40.70;24.83;;;;;;;;;;4882207;28;92578;-78
2022/10/31 09:58:05;;;;;;;22.40;16.27;;;;;;;;;;4883789;28;94077;-82
2022/10/31 10:00:35;;;;;;;30.67;21.88;;;;;;;;;;4883277;28;92445;-79
2022/10/31 10:03:09;;;;;;;31.75;21.92;;;;;;;;;;4881442;28;93901;-79
2022/10/31 10:05:43;;;;;;;31.13;22.13;;;;;;;;;;4881244;28;97405;-80
2022/10/31 10:08:20;;;;;;;31.58;24.13;;;;;;;;;;4898213;28;92606;-80
2022/10/31 10:11:26;;;;;;;25.67;20.20;;;;;;;;;;4879964;28;92956;-80
2022/10/31 10:14:13;;;;;;;29.75;22.75;;;;;;;;;;4880861;28;95522;-80
2022/10/31 10:16:56;;;;;;;28.73;22.17;;;;;;;;;;4898379;28;92525;-81
2022/10/31 10:19:28;;;;;;;30.13;23.00;;;;;;;;;;4898725;28;94195;-80
2022/10/31 10:22:06;;;;;;;35.28;22.85;;;;;;;;;;4901358;28;94141;-79
2022/10/31 10:24:50;;;;;;;29.42;21.75;;;;;;;;;;4897983;28;93198;-80
2022/10/31 10:27:20;;;;;;;36.42;22.77;;;;;;;;;;4897488;28;94154;-79
2022/10/31 10:30:00;;;;;;;58.03;23.37;;;;;;;;;;4897538;28;92991;-80
2022/10/31 10:32:28;;;;;;;33.90;22.80;;;;;;;;;;4898443;28;95388;-80
2022/10/31 10:34:57;;;;;;;40.45;22.48;;;;;;;;;;4903927;28;94247;-80
2022/10/31 10:37:56;;;;;;;28.13;20.03;;;;;;;;;;4905193;28;92319;-80
2022/10/31 10:40:27;;;;;;;26.27;19.45;;;;;;;;;;4900729;28;94208;-80
2022/10/31 10:49:49;;;;;;;31.48;19.25;;;;;;;;;;4914846;28;93101;-81
2022/10/31 10:53:01;;;;;;;23.02;18.55;;;;;;;;;;4910300;28;91640;-80
2022/10/31 10:55:39;;;;;;;21.13;17.83;;;;;;;;;;4900972;28;93140;-80
2022/10/31 10:58:09;;;;;;;21.38;15.60;;;;;;;;;;4899986;28;93031;-79
2022/10/31 11:00:40;;;;;;;19.38;14.40;;;;;;;;;;4898657;28;94887;-79
2022/10/31 11:03:06;;;;;;;18.83;12.55;;;;;;;;;;4900510;28;96351;-79
2022/10/31 11:05:39;;;;;;;19.45;12.43;;;;;;;;;;4900386;28;94173;-80
2022/10/31 11:08:06;;;;;;;23.92;12.52;;;;;;;;;;4900070;28;92513;-82
2022/10/31 11:10:33;;;;;;;21.58;13.13;;;;;;;;;;4887357;28;93190;-82
2022/10/31 11:13:11;;;;;;;20.25;12.27;;;;;;;;;;4882396;28;92530;-81
2022/10/31 11:15:56;;;;;;;26.00;13.57;;;;;;;;;;4885374;28;93892;-80
2022/10/31 11:18:24;;;;;;;18.15;13.02;;;;;;;;;;4882705;28;93568;-82
2022/10/31 11:20:56;;;;;;;17.80;13.32;;;;;;;;;;4897347;28;92509;-81
2022/10/31 11:23:24;;;;;;;17.38;13.13;;;;;;;;;;4900802;28;93981;-82
2022/10/31 11:25:51;;;;;;;21.60;13.15;;;;;;;;;;4892926;28;96632;-80
2022/10/31 11:28:18;;;;;;;22.15;13.65;;;;;;;;;;4893691;28;92521;-81
2022/10/31 11:30:46;;;;;;;19.55;13.85;;;;;;;;;;4889564;28;94115;-81
2022/10/31 11:33:18;;;;;;;21.80;13.90;;;;;;;;;;4903085;28;94275;-81
2022/10/31 11:35:45;;;;;;;27.00;15.73;;;;;;;;;;4879907;28;93450;-81
2022/10/31 11:38:15;;;;;;;26.00;16.02;;;;;;;;;;4893806;28;94053;-81
2022/10/31 11:40:50;;;;;;;18.67;12.82;;;;;;;;;;4894699;28;93102;-81
2022/10/31 11:43:17;;;;;;;27.88;15.65;;;;;;;;;;4880860;28;92979;-80
2022/10/31 11:45:44;;;;;;;29.48;15.73;;;;;;;;;;4880757;28;94388;-80
2022/10/31 11:48:19;;;;;;;25.15;15.48;;;;;;;;;;4891059;28;92488;-80
2022/10/31 11:50:49;;;;;;;27.50;16.52;;;;;;;;;;4898104;28;94785;-81
2022/10/31 11:53:19;;;;;;;27.48;16.02;;;;;;;;;;4899820;28;94293;-80
2022/10/31 11:55:45;;;;;;;25.95;17.15;;;;;;;;;;4884067;28;92676;-81
2022/10/31 11:58:22;;;;;;;32.60;18.52;;;;;;;;;;4899338;28;93083;-81
2022/10/31 12:00:50;;;;;;;26.13;18.88;;;;;;;;;;4899596;28;93795;-80
2022/10/31 12:03:25;;;;;;;24.33;17.88;;;;;;;;;;4899286;28;93899;-80
2022/10/31 12:05:59;;;;;;;31.02;18.17;;;;;;;;;;4899033;28;93130;-81
2022/10/31 12:08:29;;;;;;;33.38;17.55;;;;;;;;;;4910332;28;92376;-81
2022/10/31 12:10:59;;;;;;;28.83;20.08;;;;;;;;;;4913943;28;93237;-81
2022/10/31 12:13:39;;;;;;;31.20;19.35;;;;;;;;;;4897211;28;94769;-81
2022/10/31 12:16:33;;;;;;;35.28;19.67;;;;;;;;;;4901743;28;94723;-81
2022/10/31 12:19:00;;;;;;;28.02;18.98;;;;;;;;;;4895794;28;94501;-81
2022/10/31 12:21:45;;;;;;;36.63;19.50;;;;;;;;;;4890992;28;92539;-81
2022/10/31 12:24:35;;;;;;;33.80;20.92;;;;;;;;;;4879801;28;96110;-82
2022/10/31 12:27:04;;;;;;;38.75;19.67;;;;;;;;;;4860356;28;93359;-82
2022/10/31 12:29:36;;;;;;;34.03;17.77;;;;;;;;;;4881130;28;92320;-82
2022/10/31 12:32:14;;;;;;;28.73;18.27;;;;;;;;;;4880128;28;94071;-82
2022/10/31 12:34:46;;;;;;;34.88;19.13;;;;;;;;;;4881683;28;92524;-83
2022/10/31 12:37:27;;;;;;;37.08;19.15;;;;;;;;;;4881260;28;92408;-83
2022/10/31 12:40:13;;;;;;;30.52;18.67;;;;;;;;;;4883319;28;93280;-83
2022/10/31 12:42:59;;;;;;;28.98;18.65;;;;;;;;;;4878197;28;94777;-83
2022/10/31 12:45:31;;;;;;;36.08;19.90;;;;;;;;;;4879492;28;95887;-84
2022/10/31 12:47:58;;;;;;;;;;;;;;;;;;4880047;28;93923;-83
2022/10/31 12:50:42;;;;;;;33.17;19.98;;;;;;;;;;4881265;28;116690;-83
2022/10/31 12:53:09;;;;;;;33.30;19.33;;;;;;;;;;4879250;28;93769;-82
2022/10/31 12:55:48;;;;;;;36.03;20.10;;;;;;;;;;4880221;28;93999;-82
2022/10/31 12:58:21;;;;;;;27.75;19.05;;;;;;;;;;4878908;28;92299;-81
2022/10/31 13:00:51;;;;;;;37.03;20.33;;;;;;;;;;4880048;28;93871;-82
2022/10/31 13:03:23;;;;;;;31.35;19.27;;;;;;;;;;4883021;28;93282;-81
2022/10/31 13:05:54;;;;;;;32.90;20.63;;;;;;;;;;4879982;28;94011;-81
2022/10/31 13:08:29;;;;;;;31.17;20.10;;;;;;;;;;4878637;28;96367;-82
2022/10/31 13:11:04;;;;;;;35.67;21.48;;;;;;;;;;4880029;28;92439;-82
2022/10/31 13:13:35;;;;;;;35.15;21.65;;;;;;;;;;4879052;28;94183;-82
2022/10/31 13:16:10;;;;;;;41.55;21.38;;;;;;;;;;4879533;28;94420;-82
2022/10/31 13:18:57;;;;;;;33.88;21.13;;;;;;;;;;4880389;28;92546;-82
2022/10/31 13:21:33;;;;;;;33.63;22.55;;;;;;;;;;4879777;28;94010;-81
2022/10/31 13:24:03;;;;;;;36.78;23.38;;;;;;;;;;4880027;28;93330;-84
2022/10/31 13:26:35;;;;;;;37.08;22.08;;;;;;;;;;4883540;28;91641;-83
2022/10/31 13:29:25;;;;;;;36.45;23.48;;;;;;;;;;4879353;28;94117;-83
2022/10/31 13:31:58;;;;;;;38.22;23.05;;;;;;;;;;4879792;28;92454;-82
2022/10/31 13:34:30;;;;;;;38.72;23.23;;;;;;;;;;4877744;28;94769;-82
2022/10/31 13:37:15;;;;;;;40.47;23.60;;;;;;;;;;4879407;28;94151;-83
2022/10/31 13:39:48;;;;;;;38.47;24.15;;;;;;;;;;4880018;28;92484;-84
2022/10/31 13:42:34;;;;;;;37.53;24.10;;;;;;;;;;4879198;28;94339;-82
2022/10/31 13:45:14;;;;;;;38.25;25.55;;;;;;;;;;4879781;28;94345;-85
2022/10/31 13:47:41;;;;;;;35.85;25.67;;;;;;;;;;4883367;28;92518;-85
2022/10/31 13:50:25;;;;;;;47.60;26.92;;;;;;;;;;4901158;28;93938;-84
2022/10/31 13:52:51;;;;;;;42.75;27.52;;;;;;;;;;4899543;28;91770;-84
2022/10/31 13:55:36;;;;;;;38.92;25.25;;;;;;;;;;4899260;28;92507;-84
2022/10/31 13:58:04;;;;;;;44.63;27.33;;;;;;;;;;4898055;28;93729;-84
2022/10/31 14:00:34;;;;;;;47.00;26.15;;;;;;;;;;4897638;28;94756;-84
2022/10/31 14:03:01;;;;;;;45.08;27.25;;;;;;;;;;4897874;28;96307;-84
2022/10/31 14:05:30;;;;;;;40.60;26.05;;;;;;;;;;4898617;28;93526;-86
2022/10/31 14:07:57;;;;;;;46.00;25.52;;;;;;;;;;4898351;28;92424;-84
2022/10/31 14:10:28;;;;;;;41.75;26.15;;;;;;;;;;4898673;28;94064;-84
2022/10/31 14:13:04;;;;;;;51.50;25.83;;;;;;;;;;4904721;28;94498;-84
2022/10/31 14:15:30;;;;;;;41.90;26.05;;;;;;;;;;4901555;28;94127;-85
2022/10/31 14:17:58;;;;;;;41.90;26.95;;;;;;;;;;4901737;28;92933;-84
2022/10/31 14:20:32;;;;;;;41.15;26.23;;;;;;;;;;4902056;28;92372;-87
2022/10/31 14:23:09;;;;;;;44.00;25.90;;;;;;;;;;4902430;28;93950;-84
2022/10/31 14:25:36;;;;;;;49.42;24.98;;;;;;;;;;4900157;28;96977;-84
2022/10/31 14:28:17;;;;;;;40.67;26.10;;;;;;;;;;4901279;28;92785;-84
2022/10/31 14:30:51;;;;;;;49.28;27.60;;;;;;;;;;4901181;28;94231;-84
2022/10/31 14:33:19;;;;;;;48.55;26.05;;;;;;;;;;4904801;28;93302;-83
2022/10/31 14:35:53;;;;;;;53.63;27.15;;;;;;;;;;4901594;28;93932;-84
2022/10/31 14:38:24;;;;;;;43.67;27.23;;;;;;;;;;4900787;28;94159;-85
2022/10/31 14:40:58;;;;;;;49.63;28.30;;;;;;;;;;4901423;28;92538;-83
2022/10/31 14:43:26;;;;;;;48.90;28.05;;;;;;;;;;4902434;28;93991;-84
2022/10/31 14:46:00;;;;;;;47.72;28.17;;;;;;;;;;4900537;28;94286;-84
2022/10/31 14:48:45;;;;;;;47.03;26.27;;;;;;;;;;4901928;28;92579;-84
2022/10/31 14:51:14;;;;;;;42.30;26.05;;;;;;;;;;4899789;28;94640;-84
2022/10/31 14:53:46;;;;;;;47.67;26.95;;;;;;;;;;4901653;28;94380;-82